sensor_id;sensor_type;location;lat;lon;timestamp;temperature;humidity
8563;DHT22;16392;52.508;13.468;2022-11-23T00:02:04;1.40;99.90
8563;DHT22;16392;52.508;13.468;2022-11-23T00:04:37;1.40;99.90
8563;DHT22;16392;52.508;13.468;2022-11-23T00:07:07;1.40;99.90
8563;DHT22;16392;52.508;13.468;2022-11-23T00:09:34;1.30;99.90
8563;DHT22;16392;52.508;13.468;2022-11-23T00:12:04;1.40;99.90
8563;DHT22;16392;52.508;13.468;2022-11-23T00:14:38;1.30;99.90
8563;DHT22;16392;52.508;13.468;2022-11-23T00:17:11;1.30;99.90
8563;DHT22;16392;52.508;13.468;2022-11-23T00:19:42;1.40;99.90
8563;DHT22;16392;52.508;13.468;2022-11-23T00:22:12;1.30;99.90
8563;DHT22;16392;52.508;13.468;2022-11-23T00:24:42;1.40;99.90
8563;DHT22;16392;52.508;13.468;2022-11-23T00:27:19;1.40;99.90
8563;DHT22;16392;52.508;13.468;2022-11-23T00:29:48;1.30;99.90
8563;DHT22;16392;52.508;13.468;2022-11-23T00:35:01;1.30;99.90
8563;DHT22;16392;52.508;13.468;2022-11-23T00:37:33;1.30;99.90
8563;DHT22;16392;52.508;13.468;2022-11-23T00:40:15;1.30;99.90
8563;DHT22;16392;52.508;13.468;2022-11-23T00:42:52;1.30;99.90
8563;DHT22;16392;52.508;13.468;2022-11-23T00:45:30;1.30;99.90
8563;DHT22;16392;52.508;13.468;2022-11-23T00:48:05;1.30;99.90
8563;DHT22;16392;52.508;13.468;2022-11-23T00:50:40;1.30;99.90
8563;DHT22;16392;52.508;13.468;2022-11-23T00:53:07;1.30;99.90
8563;DHT22;16392;52.508;13.468;2022-11-23T00:55:40;1.40;99.90
8563;DHT22;16392;52.508;13.468;2022-11-23T00:58:10;1.30;99.90
8563;DHT22;16392;52.508;13.468;2022-11-23T01:00:40;1.30;99.90
8563;DHT22;16392;52.508;13.468;2022-11-23T01:03:13;1.30;99.90
8563;DHT22;16392;52.508;13.468;2022-11-23T01:05:52;1.40;99.90
8563;DHT22;16392;52.508;13.468;2022-11-23T01:08:22;1.40;99.90
8563;DHT22;16392;52.508;13.468;2022-11-23T01:10:58;1.40;99.90
8563;DHT22;16392;52.508;13.468;2022-11-23T01:13:27;1.40;99.90
8563;DHT22;16392;52.508;13.468;2022-11-23T01:16:06;1.40;99.90
8563;DHT22;16392;52.508;13.468;2022-11-23T01:18:50;1.30;99.90
8563;DHT22;16392;52.508;13.468;2022-11-23T01:21:25;1.30;99.90
8563;DHT22;16392;52.508;13.468;2022-11-23T01:23:58;1.30;99.90
8563;DHT22;16392;52.508;13.468;2022-11-23T01:26:41;1.20;99.90
8563;DHT22;16392;52.508;13.468;2022-11-23T01:29:13;1.20;99.90
8563;DHT22;16392;52.508;13.468;2022-11-23T01:31:43;1.30;99.90
8563;DHT22;16392;52.508;13.468;2022-11-23T01:34:12;1.30;99.90
8563;DHT22;16392;52.508;13.468;2022-11-23T01:36:48;1.30;99.90
8563;DHT22;16392;52.508;13.468;2022-11-23T01:39:16;1.30;99.90
8563;DHT22;16392;52.508;13.468;2022-11-23T01:41:53;1.40;99.90
8563;DHT22;16392;52.508;13.468;2022-11-23T01:44:28;1.40;99.90
8563;DHT22;16392;52.508;13.468;2022-11-23T01:46:58;1.40;99.90
8563;DHT22;16392;52.508;13.468;2022-11-23T01:49:30;1.40;99.90
8563;DHT22;16392;52.508;13.468;2022-11-23T01:52:06;1.40;99.90
8563;DHT22;16392;52.508;13.468;2022-11-23T01:54:38;1.50;99.90
8563;DHT22;16392;52.508;13.468;2022-11-23T01:57:09;1.50;99.90
8563;DHT22;16392;52.508;13.468;2022-11-23T01:59:42;1.50;99.90
8563;DHT22;16392;52.508;13.468;2022-11-23T02:02:09;1.50;99.90
8563;DHT22;16392;52.508;13.468;2022-11-23T02:04:39;1.60;99.90
8563;DHT22;16392;52.508;13.468;2022-11-23T02:07:08;1.60;99.90
8563;DHT22;16392;52.508;13.468;2022-11-23T02:09:36;1.60;99.90
8563;DHT22;16392;52.508;13.468;2022-11-23T02:12:09;1.60;99.90
8563;DHT22;16392;52.508;13.468;2022-11-23T02:14:38;1.60;99.90
8563;DHT22;16392;52.508;13.468;2022-11-23T02:17:13;1.70;99.90
8563;DHT22;16392;52.508;13.468;2022-11-23T02:19:50;1.70;99.90
8563;DHT22;16392;52.508;13.468;2022-11-23T02:22:23;1.70;99.90
8563;DHT22;16392;52.508;13.468;2022-11-23T02:24:54;1.70;99.90
8563;DHT22;16392;52.508;13.468;2022-11-23T02:27:24;1.70;99.90
8563;DHT22;16392;52.508;13.468;2022-11-23T02:29:57;1.70;99.90
8563;DHT22;16392;52.508;13.468;2022-11-23T02:32:27;1.70;99.90
8563;DHT22;16392;52.508;13.468;2022-11-23T02:34:58;1.70;99.90
8563;DHT22;16392;52.508;13.468;2022-11-23T02:37:27;1.70;99.90
8563;DHT22;16392;52.508;13.468;2022-11-23T02:40:04;1.70;99.90
8563;DHT22;16392;52.508;13.468;2022-11-23T02:42:42;1.80;99.90
8563;DHT22;16392;52.508;13.468;2022-11-23T02:45:20;1.80;99.90
8563;DHT22;16392;52.508;13.468;2022-11-23T02:47:50;1.80;99.90
8563;DHT22;16392;52.508;13.468;2022-11-23T02:50:19;1.80;99.90
8563;DHT22;16392;52.508;13.468;2022-11-23T02:52:51;1.80;99.90
8563;DHT22;16392;52.508;13.468;2022-11-23T02:55:18;1.80;99.90
8563;DHT22;16392;52.508;13.468;2022-11-23T02:57:54;1.80;99.90
8563;DHT22;16392;52.508;13.468;2022-11-23T03:00:24;1.70;99.90
8563;DHT22;16392;52.508;13.468;2022-11-23T03:02:51;1.70;99.90
8563;DHT22;16392;52.508;13.468;2022-11-23T03:05:18;1.70;99.90
8563;DHT22;16392;52.508;13.468;2022-11-23T03:07:44;1.60;99.90
8563;DHT22;16392;52.508;13.468;2022-11-23T03:10:11;1.60;99.90
8563;DHT22;16392;52.508;13.468;2022-11-23T03:12:39;1.60;99.90
8563;DHT22;16392;52.508;13.468;2022-11-23T03:15:08;1.60;99.90
8563;DHT22;16392;52.508;13.468;2022-11-23T03:17:35;1.50;99.90
8563;DHT22;16392;52.508;13.468;2022-11-23T03:20:03;1.50;99.90
8563;DHT22;16392;52.508;13.468;2022-11-23T03:22:30;1.50;99.90
8563;DHT22;16392;52.508;13.468;2022-11-23T03:24:57;1.50;99.90
8563;DHT22;16392;52.508;13.468;2022-11-23T03:27:23;1.50;99.90
8563;DHT22;16392;52.508;13.468;2022-11-23T03:29:50;1.50;99.90
8563;DHT22;16392;52.508;13.468;2022-11-23T03:32:18;1.50;99.90
8563;DHT22;16392;52.508;13.468;2022-11-23T03:34:44;1.50;99.90
8563;DHT22;16392;52.508;13.468;2022-11-23T03:37:11;1.40;99.90
8563;DHT22;16392;52.508;13.468;2022-11-23T03:39:39;1.40;99.90
8563;DHT22;16392;52.508;13.468;2022-11-23T03:42:06;1.40;99.90
8563;DHT22;16392;52.508;13.468;2022-11-23T03:44:33;1.40;99.90
8563;DHT22;16392;52.508;13.468;2022-11-23T03:46:59;1.40;99.90
8563;DHT22;16392;52.508;13.468;2022-11-23T03:49:27;1.40;99.90
8563;DHT22;16392;52.508;13.468;2022-11-23T03:51:54;1.40;99.90
8563;DHT22;16392;52.508;13.468;2022-11-23T03:54:20;1.30;99.90
8563;DHT22;16392;52.508;13.468;2022-11-23T03:56:47;1.30;99.90
8563;DHT22;16392;52.508;13.468;2022-11-23T03:59:13;1.30;99.90
8563;DHT22;16392;52.508;13.468;2022-11-23T04:01:40;1.30;99.90
8563;DHT22;16392;52.508;13.468;2022-11-23T04:04:07;1.30;99.90
8563;DHT22;16392;52.508;13.468;2022-11-23T04:06:36;1.30;99.90
8563;DHT22;16392;52.508;13.468;2022-11-23T04:09:03;1.30;99.90
8563;DHT22;16392;52.508;13.468;2022-11-23T04:11:29;1.30;99.90
8563;DHT22;16392;52.508;13.468;2022-11-23T04:13:56;1.30;99.90
8563;DHT22;16392;52.508;13.468;2022-11-23T04:16:23;1.40;99.90
8563;DHT22;16392;52.508;13.468;2022-11-23T04:18:49;1.30;99.90
8563;DHT22;16392;52.508;13.468;2022-11-23T04:21:17;1.30;99.90
8563;DHT22;16392;52.508;13.468;2022-11-23T04:23:45;1.20;99.90
8563;DHT22;16392;52.508;13.468;2022-11-23T04:26:12;1.30;99.90
8563;DHT22;16392;52.508;13.468;2022-11-23T04:28:38;1.30;99.90
8563;DHT22;16392;52.508;13.468;2022-11-23T04:31:05;1.30;99.90
8563;DHT22;16392;52.508;13.468;2022-11-23T04:33:33;1.30;99.90
8563;DHT22;16392;52.508;13.468;2022-11-23T04:36:00;1.30;99.90
8563;DHT22;16392;52.508;13.468;2022-11-23T04:38:27;1.20;99.90
8563;DHT22;16392;52.508;13.468;2022-11-23T04:40:55;1.20;99.90
8563;DHT22;16392;52.508;13.468;2022-11-23T04:43:24;1.20;99.90
8563;DHT22;16392;52.508;13.468;2022-11-23T04:45:51;1.20;99.90
8563;DHT22;16392;52.508;13.468;2022-11-23T04:48:17;1.20;99.90
8563;DHT22;16392;52.508;13.468;2022-11-23T04:50:44;1.20;99.90
8563;DHT22;16392;52.508;13.468;2022-11-23T04:53:11;1.20;99.90
8563;DHT22;16392;52.508;13.468;2022-11-23T04:55:37;1.20;99.90
8563;DHT22;16392;52.508;13.468;2022-11-23T04:58:05;1.10;99.90
8563;DHT22;16392;52.508;13.468;2022-11-23T05:00:32;1.10;99.90
8563;DHT22;16392;52.508;13.468;2022-11-23T05:02:59;1.10;99.90
8563;DHT22;16392;52.508;13.468;2022-11-23T05:05:27;1.20;99.90
8563;DHT22;16392;52.508;13.468;2022-11-23T05:07:55;1.20;99.90
8563;DHT22;16392;52.508;13.468;2022-11-23T05:10:22;1.10;99.90
8563;DHT22;16392;52.508;13.468;2022-11-23T05:12:49;1.20;99.90
8563;DHT22;16392;52.508;13.468;2022-11-23T05:15:17;1.20;99.90
8563;DHT22;16392;52.508;13.468;2022-11-23T05:17:43;1.20;99.90
8563;DHT22;16392;52.508;13.468;2022-11-23T05:20:10;1.20;99.90
8563;DHT22;16392;52.508;13.468;2022-11-23T05:22:37;1.20;99.90
8563;DHT22;16392;52.508;13.468;2022-11-23T05:25:05;1.20;99.90
8563;DHT22;16392;52.508;13.468;2022-11-23T05:27:32;1.20;99.90
8563;DHT22;16392;52.508;13.468;2022-11-23T05:29:59;1.20;99.90
8563;DHT22;16392;52.508;13.468;2022-11-23T05:32:27;1.30;99.90
8563;DHT22;16392;52.508;13.468;2022-11-23T05:34:56;1.30;99.90
8563;DHT22;16392;52.508;13.468;2022-11-23T05:37:23;1.30;99.90
8563;DHT22;16392;52.508;13.468;2022-11-23T05:39:49;1.30;99.90
8563;DHT22;16392;52.508;13.468;2022-11-23T05:42:16;1.40;99.90
8563;DHT22;16392;52.508;13.468;2022-11-23T05:44:43;1.30;99.90
8563;DHT22;16392;52.508;13.468;2022-11-23T05:47:09;1.40;99.90
8563;DHT22;16392;52.508;13.468;2022-11-23T05:49:37;1.40;99.90
8563;DHT22;16392;52.508;13.468;2022-11-23T05:52:04;1.40;99.90
8563;DHT22;16392;52.508;13.468;2022-11-23T05:54:31;1.40;99.90
8563;DHT22;16392;52.508;13.468;2022-11-23T05:56:57;1.40;99.90
8563;DHT22;16392;52.508;13.468;2022-11-23T05:59:24;1.40;99.90
8563;DHT22;16392;52.508;13.468;2022-11-23T06:01:51;1.40;99.90
8563;DHT22;16392;52.508;13.468;2022-11-23T06:04:17;1.40;99.90
8563;DHT22;16392;52.508;13.468;2022-11-23T06:06:45;1.40;99.90
8563;DHT22;16392;52.508;13.468;2022-11-23T06:09:12;1.40;99.90
8563;DHT22;16392;52.508;13.468;2022-11-23T06:11:39;1.40;99.90
8563;DHT22;16392;52.508;13.468;2022-11-23T06:14:05;1.40;99.90
8563;DHT22;16392;52.508;13.468;2022-11-23T06:16:32;1.40;99.90
8563;DHT22;16392;52.508;13.468;2022-11-23T06:18:59;1.40;99.90
8563;DHT22;16392;52.508;13.468;2022-11-23T06:21:26;1.30;99.90
8563;DHT22;16392;52.508;13.468;2022-11-23T06:23:54;1.30;99.90
8563;DHT22;16392;52.508;13.468;2022-11-23T06:26:21;1.30;99.90
8563;DHT22;16392;52.508;13.468;2022-11-23T06:28:47;1.20;99.90
8563;DHT22;16392;52.508;13.468;2022-11-23T06:31:14;1.20;99.90
8563;DHT22;16392;52.508;13.468;2022-11-23T06:33:41;1.10;99.90
8563;DHT22;16392;52.508;13.468;2022-11-23T06:36:09;1.10;99.90
8563;DHT22;16392;52.508;13.468;2022-11-23T06:38:36;1.00;99.90
8563;DHT22;16392;52.508;13.468;2022-11-23T06:41:05;1.00;99.90
8563;DHT22;16392;52.508;13.468;2022-11-23T06:43:31;1.00;99.90
8563;DHT22;16392;52.508;13.468;2022-11-23T06:45:58;1.00;99.90
8563;DHT22;16392;52.508;13.468;2022-11-23T06:48:28;1.00;99.90
8563;DHT22;16392;52.508;13.468;2022-11-23T06:50:57;1.00;99.90
8563;DHT22;16392;52.508;13.468;2022-11-23T06:53:24;1.00;99.90
8563;DHT22;16392;52.508;13.468;2022-11-23T06:55:52;1.00;99.90
8563;DHT22;16392;52.508;13.468;2022-11-23T06:58:20;0.90;99.90
8563;DHT22;16392;52.508;13.468;2022-11-23T07:00:47;0.90;99.90
8563;DHT22;16392;52.508;13.468;2022-11-23T07:03:18;0.90;99.90
8563;DHT22;16392;52.508;13.468;2022-11-23T07:05:45;1.00;99.90
8563;DHT22;16392;52.508;13.468;2022-11-23T07:08:12;0.90;99.90
8563;DHT22;16392;52.508;13.468;2022-11-23T07:10:39;0.90;99.90
8563;DHT22;16392;52.508;13.468;2022-11-23T07:13:06;1.00;99.90
8563;DHT22;16392;52.508;13.468;2022-11-23T07:15:35;0.90;99.90
8563;DHT22;16392;52.508;13.468;2022-11-23T07:18:03;0.90;99.90
8563;DHT22;16392;52.508;13.468;2022-11-23T07:20:30;0.90;99.90
8563;DHT22;16392;52.508;13.468;2022-11-23T07:22:59;0.90;99.90
8563;DHT22;16392;52.508;13.468;2022-11-23T07:25:26;0.90;99.90
8563;DHT22;16392;52.508;13.468;2022-11-23T07:27:54;0.90;99.90
8563;DHT22;16392;52.508;13.468;2022-11-23T07:30:24;0.90;99.90
8563;DHT22;16392;52.508;13.468;2022-11-23T07:32:52;1.00;99.90
8563;DHT22;16392;52.508;13.468;2022-11-23T07:35:19;1.00;99.90
8563;DHT22;16392;52.508;13.468;2022-11-23T07:37:46;1.10;99.90
8563;DHT22;16392;52.508;13.468;2022-11-23T07:40:13;1.10;99.90
8563;DHT22;16392;52.508;13.468;2022-11-23T07:42:40;1.10;99.90
8563;DHT22;16392;52.508;13.468;2022-11-23T07:45:08;1.10;99.90
8563;DHT22;16392;52.508;13.468;2022-11-23T07:47:36;1.20;99.90
8563;DHT22;16392;52.508;13.468;2022-11-23T07:50:05;1.20;99.90
8563;DHT22;16392;52.508;13.468;2022-11-23T07:52:32;1.40;99.90
8563;DHT22;16392;52.508;13.468;2022-11-23T07:55:00;1.70;99.90
8563;DHT22;16392;52.508;13.468;2022-11-23T07:57:27;1.80;99.90
8563;DHT22;16392;52.508;13.468;2022-11-23T07:59:54;2.10;99.90
8563;DHT22;16392;52.508;13.468;2022-11-23T08:02:20;2.40;99.90
8563;DHT22;16392;52.508;13.468;2022-11-23T08:04:47;2.50;99.90
8563;DHT22;16392;52.508;13.468;2022-11-23T08:07:15;2.70;99.90
8563;DHT22;16392;52.508;13.468;2022-11-23T08:09:42;2.90;99.90
8563;DHT22;16392;52.508;13.468;2022-11-23T08:12:09;3.00;99.90
8563;DHT22;16392;52.508;13.468;2022-11-23T08:14:35;3.20;99.90
8563;DHT22;16392;52.508;13.468;2022-11-23T08:17:02;3.10;99.90
8563;DHT22;16392;52.508;13.468;2022-11-23T08:19:29;2.80;99.90
8563;DHT22;16392;52.508;13.468;2022-11-23T08:21:55;2.60;99.90
8563;DHT22;16392;52.508;13.468;2022-11-23T08:24:23;2.40;99.90
8563;DHT22;16392;52.508;13.468;2022-11-23T08:26:50;2.50;99.90
8563;DHT22;16392;52.508;13.468;2022-11-23T08:29:17;2.60;99.90
8563;DHT22;16392;52.508;13.468;2022-11-23T08:31:43;2.60;99.90
8563;DHT22;16392;52.508;13.468;2022-11-23T08:34:10;2.70;99.90
8563;DHT22;16392;52.508;13.468;2022-11-23T08:36:37;2.50;99.90
8563;DHT22;16392;52.508;13.468;2022-11-23T08:39:04;2.50;99.90
8563;DHT22;16392;52.508;13.468;2022-11-23T08:41:33;2.50;99.90
8563;DHT22;16392;52.508;13.468;2022-11-23T08:44:00;2.50;99.90
8563;DHT22;16392;52.508;13.468;2022-11-23T08:46:27;2.60;99.90
8563;DHT22;16392;52.508;13.468;2022-11-23T08:48:53;2.60;99.90
8563;DHT22;16392;52.508;13.468;2022-11-23T08:51:20;2.70;99.90
8563;DHT22;16392;52.508;13.468;2022-11-23T08:53:47;2.90;99.90
8563;DHT22;16392;52.508;13.468;2022-11-23T08:56:14;3.10;99.90
8563;DHT22;16392;52.508;13.468;2022-11-23T08:58:42;3.30;99.90
8563;DHT22;16392;52.508;13.468;2022-11-23T09:01:10;3.40;99.90
8563;DHT22;16392;52.508;13.468;2022-11-23T09:03:37;3.70;99.90
8563;DHT22;16392;52.508;13.468;2022-11-23T09:06:04;3.80;99.90
8563;DHT22;16392;52.508;13.468;2022-11-23T09:08:31;3.80;99.90
8563;DHT22;16392;52.508;13.468;2022-11-23T09:10:59;3.90;99.90
8563;DHT22;16392;52.508;13.468;2022-11-23T09:13:26;4.00;99.90
8563;DHT22;16392;52.508;13.468;2022-11-23T09:15:57;4.00;99.90
8563;DHT22;16392;52.508;13.468;2022-11-23T09:18:24;3.90;99.90
8563;DHT22;16392;52.508;13.468;2022-11-23T09:20:51;3.90;99.90
8563;DHT22;16392;52.508;13.468;2022-11-23T09:23:17;3.90;99.90
8563;DHT22;16392;52.508;13.468;2022-11-23T09:25:44;4.00;99.90
8563;DHT22;16392;52.508;13.468;2022-11-23T09:28:13;4.20;99.90
8563;DHT22;16392;52.508;13.468;2022-11-23T09:30:40;4.20;99.90
8563;DHT22;16392;52.508;13.468;2022-11-23T09:33:08;4.30;99.90
8563;DHT22;16392;52.508;13.468;2022-11-23T09:35:35;4.80;99.90
8563;DHT22;16392;52.508;13.468;2022-11-23T09:38:01;5.40;99.90
8563;DHT22;16392;52.508;13.468;2022-11-23T09:40:32;5.70;99.90
8563;DHT22;16392;52.508;13.468;2022-11-23T09:43:28;5.70;99.90
8563;DHT22;16392;52.508;13.468;2022-11-23T09:46:05;5.70;99.90
8563;DHT22;16392;52.508;13.468;2022-11-23T09:48:53;5.80;99.90
8563;DHT22;16392;52.508;13.468;2022-11-23T09:51:21;5.90;99.90
8563;DHT22;16392;52.508;13.468;2022-11-23T09:53:51;6.30;99.90
8563;DHT22;16392;52.508;13.468;2022-11-23T09:56:21;6.30;99.90
8563;DHT22;16392;52.508;13.468;2022-11-23T09:58:52;6.30;99.90
8563;DHT22;16392;52.508;13.468;2022-11-23T10:01:19;6.40;99.90
8563;DHT22;16392;52.508;13.468;2022-11-23T10:03:48;6.40;99.90
8563;DHT22;16392;52.508;13.468;2022-11-23T10:06:17;6.30;99.90
8563;DHT22;16392;52.508;13.468;2022-11-23T10:08:51;6.20;99.90
8563;DHT22;16392;52.508;13.468;2022-11-23T10:11:30;6.50;99.90
8563;DHT22;16392;52.508;13.468;2022-11-23T10:14:07;6.80;99.90
8563;DHT22;16392;52.508;13.468;2022-11-23T10:16:43;6.80;99.90
8563;DHT22;16392;52.508;13.468;2022-11-23T10:19:22;6.90;99.90
8563;DHT22;16392;52.508;13.468;2022-11-23T10:21:56;7.00;99.90
8563;DHT22;16392;52.508;13.468;2022-11-23T10:24:31;6.80;99.90
8563;DHT22;16392;52.508;13.468;2022-11-23T10:26:58;6.70;99.90
8563;DHT22;16392;52.508;13.468;2022-11-23T10:29:28;6.60;99.90
8563;DHT22;16392;52.508;13.468;2022-11-23T10:31:56;6.80;99.90
8563;DHT22;16392;52.508;13.468;2022-11-23T10:34:37;7.20;99.90
8563;DHT22;16392;52.508;13.468;2022-11-23T10:37:09;7.10;99.90
8563;DHT22;16392;52.508;13.468;2022-11-23T10:39:37;7.00;99.90
8563;DHT22;16392;52.508;13.468;2022-11-23T10:42:17;6.90;99.90
8563;DHT22;16392;52.508;13.468;2022-11-23T10:44:47;6.80;99.90
8563;DHT22;16392;52.508;13.468;2022-11-23T10:47:33;7.00;99.90
8563;DHT22;16392;52.508;13.468;2022-11-23T10:50:01;7.10;99.90
8563;DHT22;16392;52.508;13.468;2022-11-23T10:52:29;7.30;99.90
8563;DHT22;16392;52.508;13.468;2022-11-23T10:54:59;7.30;99.90
8563;DHT22;16392;52.508;13.468;2022-11-23T10:57:30;7.00;99.90
8563;DHT22;16392;52.508;13.468;2022-11-23T10:59:59;6.80;99.90
8563;DHT22;16392;52.508;13.468;2022-11-23T11:02:27;6.90;99.90
8563;DHT22;16392;52.508;13.468;2022-11-23T11:05:19;6.80;99.90
8563;DHT22;16392;52.508;13.468;2022-11-23T11:07:46;6.70;99.90
8563;DHT22;16392;52.508;13.468;2022-11-23T11:10:35;6.70;99.90
8563;DHT22;16392;52.508;13.468;2022-11-23T11:13:19;6.80;99.90
8563;DHT22;16392;52.508;13.468;2022-11-23T11:15:51;6.90;99.90
8563;DHT22;16392;52.508;13.468;2022-11-23T11:18:18;7.20;99.90
8563;DHT22;16392;52.508;13.468;2022-11-23T11:20:46;7.30;99.90
8563;DHT22;16392;52.508;13.468;2022-11-23T11:23:16;7.40;99.90
8563;DHT22;16392;52.508;13.468;2022-11-23T11:25:44;7.40;99.90
8563;DHT22;16392;52.508;13.468;2022-11-23T11:28:21;7.70;99.90
8563;DHT22;16392;52.508;13.468;2022-11-23T11:30:57;7.60;99.90
8563;DHT22;16392;52.508;13.468;2022-11-23T11:33:30;7.60;99.90
8563;DHT22;16392;52.508;13.468;2022-11-23T11:36:00;7.60;99.90
8563;DHT22;16392;52.508;13.468;2022-11-23T11:38:32;7.50;99.90
8563;DHT22;16392;52.508;13.468;2022-11-23T11:41:02;7.20;99.90
8563;DHT22;16392;52.508;13.468;2022-11-23T11:43:33;6.90;99.90
8563;DHT22;16392;52.508;13.468;2022-11-23T11:46:05;6.70;99.90
8563;DHT22;16392;52.508;13.468;2022-11-23T11:48:38;6.90;99.90
8563;DHT22;16392;52.508;13.468;2022-11-23T11:51:09;7.10;99.90
8563;DHT22;16392;52.508;13.468;2022-11-23T11:53:41;7.20;99.90
8563;DHT22;16392;52.508;13.468;2022-11-23T11:56:27;7.30;99.90
8563;DHT22;16392;52.508;13.468;2022-11-23T11:58:59;7.30;99.90
8563;DHT22;16392;52.508;13.468;2022-11-23T12:01:33;7.30;99.90
8563;DHT22;16392;52.508;13.468;2022-11-23T12:04:04;7.10;99.90
8563;DHT22;16392;52.508;13.468;2022-11-23T12:06:36;7.10;99.90
8563;DHT22;16392;52.508;13.468;2022-11-23T12:09:10;7.00;99.90
8563;DHT22;16392;52.508;13.468;2022-11-23T12:11:38;7.00;99.90
8563;DHT22;16392;52.508;13.468;2022-11-23T12:14:08;7.20;99.90
8563;DHT22;16392;52.508;13.468;2022-11-23T12:16:43;7.40;99.90
8563;DHT22;16392;52.508;13.468;2022-11-23T12:19:16;7.60;99.90
8563;DHT22;16392;52.508;13.468;2022-11-23T12:22:01;7.60;99.90
8563;DHT22;16392;52.508;13.468;2022-11-23T12:24:39;7.60;99.90
8563;DHT22;16392;52.508;13.468;2022-11-23T12:27:19;7.60;99.90
8563;DHT22;16392;52.508;13.468;2022-11-23T12:29:58;7.60;99.90
8563;DHT22;16392;52.508;13.468;2022-11-23T12:32:35;7.40;99.90
8563;DHT22;16392;52.508;13.468;2022-11-23T12:35:30;7.40;99.90
8563;DHT22;16392;52.508;13.468;2022-11-23T12:38:07;7.30;99.90
8563;DHT22;16392;52.508;13.468;2022-11-23T12:40:55;7.20;99.90
8563;DHT22;16392;52.508;13.468;2022-11-23T12:43:31;7.10;99.90
8563;DHT22;16392;52.508;13.468;2022-11-23T12:46:16;7.10;99.90
8563;DHT22;16392;52.508;13.468;2022-11-23T12:49:00;7.10;99.90
8563;DHT22;16392;52.508;13.468;2022-11-23T12:51:35;6.90;99.90
8563;DHT22;16392;52.508;13.468;2022-11-23T12:54:19;6.90;99.90
8563;DHT22;16392;52.508;13.468;2022-11-23T12:57:03;6.80;99.90
8563;DHT22;16392;52.508;13.468;2022-11-23T12:59:41;6.80;99.90
8563;DHT22;16392;52.508;13.468;2022-11-23T13:02:17;6.80;99.90
8563;DHT22;16392;52.508;13.468;2022-11-23T13:05:04;6.80;99.90
8563;DHT22;16392;52.508;13.468;2022-11-23T13:07:59;6.90;99.90
8563;DHT22;16392;52.508;13.468;2022-11-23T13:10:51;7.00;99.90
8563;DHT22;16392;52.508;13.468;2022-11-23T13:13:47;7.00;99.90
8563;DHT22;16392;52.508;13.468;2022-11-23T13:16:50;7.10;99.90
8563;DHT22;16392;52.508;13.468;2022-11-23T13:19:33;7.30;99.90
8563;DHT22;16392;52.508;13.468;2022-11-23T13:22:04;7.30;99.90
8563;DHT22;16392;52.508;13.468;2022-11-23T13:24:33;7.40;99.90
8563;DHT22;16392;52.508;13.468;2022-11-23T13:27:29;7.40;99.90
8563;DHT22;16392;52.508;13.468;2022-11-23T13:29:56;7.40;99.90
8563;DHT22;16392;52.508;13.468;2022-11-23T13:32:45;7.30;99.90
8563;DHT22;16392;52.508;13.468;2022-11-23T13:35:52;7.20;99.90
8563;DHT22;16392;52.508;13.468;2022-11-23T13:38:27;7.10;99.90
8563;DHT22;16392;52.508;13.468;2022-11-23T13:40:54;7.10;99.90
8563;DHT22;16392;52.508;13.468;2022-11-23T13:43:25;7.20;99.90
8563;DHT22;16392;52.508;13.468;2022-11-23T13:46:18;7.10;99.90
8563;DHT22;16392;52.508;13.468;2022-11-23T13:48:46;7.00;99.90
8563;DHT22;16392;52.508;13.468;2022-11-23T13:51:21;6.90;99.90
8563;DHT22;16392;52.508;13.468;2022-11-23T13:53:51;6.80;99.90
8563;DHT22;16392;52.508;13.468;2022-11-23T13:56:32;6.80;99.90
8563;DHT22;16392;52.508;13.468;2022-11-23T13:59:27;6.80;99.90
8563;DHT22;16392;52.508;13.468;2022-11-23T14:02:20;6.70;99.90
8563;DHT22;16392;52.508;13.468;2022-11-23T14:04:48;6.80;99.90
8563;DHT22;16392;52.508;13.468;2022-11-23T14:07:16;6.80;99.90
8563;DHT22;16392;52.508;13.468;2022-11-23T14:09:49;6.80;99.90
8563;DHT22;16392;52.508;13.468;2022-11-23T14:12:21;6.80;99.90
8563;DHT22;16392;52.508;13.468;2022-11-23T14:14:57;6.80;99.90
8563;DHT22;16392;52.508;13.468;2022-11-23T14:17:50;6.80;99.90
8563;DHT22;16392;52.508;13.468;2022-11-23T14:20:44;6.80;99.90
8563;DHT22;16392;52.508;13.468;2022-11-23T14:24:00;6.70;99.90
8563;DHT22;16392;52.508;13.468;2022-11-23T14:26:32;6.60;99.90
8563;DHT22;16392;52.508;13.468;2022-11-23T14:29:20;6.50;99.90
8563;DHT22;16392;52.508;13.468;2022-11-23T14:32:21;6.50;99.90
8563;DHT22;16392;52.508;13.468;2022-11-23T14:35:00;6.40;99.90
8563;DHT22;16392;52.508;13.468;2022-11-23T14:37:40;6.30;99.90
8563;DHT22;16392;52.508;13.468;2022-11-23T14:40:16;6.20;99.90
8563;DHT22;16392;52.508;13.468;2022-11-23T14:42:51;6.20;99.90
8563;DHT22;16392;52.508;13.468;2022-11-23T14:45:20;6.10;99.90
8563;DHT22;16392;52.508;13.468;2022-11-23T14:47:48;6.00;99.90
8563;DHT22;16392;52.508;13.468;2022-11-23T14:50:23;5.90;99.90
8563;DHT22;16392;52.508;13.468;2022-11-23T14:52:51;6.00;99.90
8563;DHT22;16392;52.508;13.468;2022-11-23T14:55:20;5.90;99.90
8563;DHT22;16392;52.508;13.468;2022-11-23T14:57:48;5.80;99.90
8563;DHT22;16392;52.508;13.468;2022-11-23T15:00:26;5.80;99.90
8563;DHT22;16392;52.508;13.468;2022-11-23T15:02:56;5.80;99.90
8563;DHT22;16392;52.508;13.468;2022-11-23T15:05:26;5.70;99.90
8563;DHT22;16392;52.508;13.468;2022-11-23T15:07:59;5.70;99.90
8563;DHT22;16392;52.508;13.468;2022-11-23T15:10:32;5.60;99.90
8563;DHT22;16392;52.508;13.468;2022-11-23T15:13:16;5.60;99.90
8563;DHT22;16392;52.508;13.468;2022-11-23T15:15:44;5.50;99.90
8563;DHT22;16392;52.508;13.468;2022-11-23T15:18:25;5.40;99.90
8563;DHT22;16392;52.508;13.468;2022-11-23T15:20:53;5.30;99.90
8563;DHT22;16392;52.508;13.468;2022-11-23T15:23:22;5.20;99.90
8563;DHT22;16392;52.508;13.468;2022-11-23T15:25:50;5.20;99.90
8563;DHT22;16392;52.508;13.468;2022-11-23T15:28:19;5.20;99.90
8563;DHT22;16392;52.508;13.468;2022-11-23T15:30:48;5.10;99.90
8563;DHT22;16392;52.508;13.468;2022-11-23T15:33:18;5.10;99.90
8563;DHT22;16392;52.508;13.468;2022-11-23T15:35:45;5.10;99.90
8563;DHT22;16392;52.508;13.468;2022-11-23T15:38:14;5.00;99.90
8563;DHT22;16392;52.508;13.468;2022-11-23T15:40:43;5.00;99.90
8563;DHT22;16392;52.508;13.468;2022-11-23T15:43:11;5.00;99.90
8563;DHT22;16392;52.508;13.468;2022-11-23T15:46:00;4.90;99.90
8563;DHT22;16392;52.508;13.468;2022-11-23T15:48:31;4.90;99.90
8563;DHT22;16392;52.508;13.468;2022-11-23T15:50:59;4.90;99.90
8563;DHT22;16392;52.508;13.468;2022-11-23T15:53:27;4.90;99.90
8563;DHT22;16392;52.508;13.468;2022-11-23T15:55:58;4.90;99.90
8563;DHT22;16392;52.508;13.468;2022-11-23T15:58:26;4.90;99.90
8563;DHT22;16392;52.508;13.468;2022-11-23T16:00:56;4.90;99.90
8563;DHT22;16392;52.508;13.468;2022-11-23T16:03:32;4.90;99.90
8563;DHT22;16392;52.508;13.468;2022-11-23T16:06:24;4.90;99.90
8563;DHT22;16392;52.508;13.468;2022-11-23T16:08:53;4.80;99.90
8563;DHT22;16392;52.508;13.468;2022-11-23T16:11:26;4.80;99.90
8563;DHT22;16392;52.508;13.468;2022-11-23T16:14:11;4.70;99.90
8563;DHT22;16392;52.508;13.468;2022-11-23T16:16:38;4.70;99.90